Aviation Digital Data Service (ADDS)

Output produced by METARs form (1221 UTC 28 July 2014)
found at http://aviationweather.gov/adds/metars/
 
KSAN 281120Z 2812/2918 VRB04KT P6SM VCSH SCT010 SCT100 BKN250 
     TEMPO 2812/2816 BKN010 
     FM281900 27009KT P6SM SCT100 SCT250 
     FM290200 VRB04KT P6SM SCT015 SCT250 
     FM290900 VRB03KT P6SM BKN011 
     FM291600 VRB04KT P6SM SCT015